createdAt,value
2022-10-06T00:01:09.805Z,11.10
2022-10-06T00:03:38.431Z,11.10
2022-10-06T00:06:07.029Z,11.10
2022-10-06T00:08:36.470Z,11.00
2022-10-06T00:11:03.682Z,10.90
2022-10-06T00:13:34.013Z,10.90
2022-10-06T00:16:02.295Z,10.80
2022-10-06T00:18:30.181Z,10.70
2022-10-06T00:20:59.014Z,10.70
2022-10-06T00:23:27.625Z,10.70
2022-10-06T00:25:55.296Z,10.70
2022-10-06T00:28:22.737Z,10.60
2022-10-06T00:30:51.279Z,10.60
2022-10-06T00:33:19.043Z,10.60
2022-10-06T00:35:46.561Z,10.50
2022-10-06T00:38:15.458Z,10.50
2022-10-06T00:40:48.807Z,10.50
2022-10-06T00:43:51.168Z,10.50
2022-10-06T00:46:30.379Z,10.40
2022-10-06T00:49:11.381Z,10.40
2022-10-06T00:51:44.362Z,10.40
2022-10-06T00:54:13.073Z,10.40
2022-10-06T00:56:40.770Z,10.30
2022-10-06T00:59:13.914Z,10.30
2022-10-06T01:01:46.520Z,10.30
2022-10-06T01:04:17.843Z,10.30
2022-10-06T01:06:50.215Z,10.20
2022-10-06T01:09:17.985Z,10.30
2022-10-06T01:11:47.365Z,10.30
2022-10-06T01:14:14.990Z,10.20
2022-10-06T01:16:44.427Z,10.20
2022-10-06T01:19:24.590Z,10.20
2022-10-06T01:21:53.813Z,10.10
2022-10-06T01:24:20.901Z,10.10
2022-10-06T01:26:52.058Z,10.10
2022-10-06T01:29:19.748Z,10.00
2022-10-06T01:31:47.019Z,10.10
2022-10-06T01:34:14.005Z,10.00
2022-10-06T01:36:42.109Z,10.00
2022-10-06T01:39:09.201Z,10.00
2022-10-06T01:41:36.186Z,10.10
2022-10-06T01:44:03.252Z,10.10
2022-10-06T01:46:30.699Z,10.00
2022-10-06T01:48:57.656Z,10.10
2022-10-06T01:51:24.661Z,10.00
2022-10-06T01:53:51.592Z,10.00
2022-10-06T01:56:18.992Z,10.00
2022-10-06T01:58:45.902Z,9.90
2022-10-06T02:01:13.779Z,9.90
2022-10-06T02:03:41.637Z,9.90
2022-10-06T02:06:09.463Z,9.90
2022-10-06T02:08:36.657Z,9.90
2022-10-06T02:11:09.345Z,9.90
2022-10-06T02:13:37.963Z,9.80
2022-10-06T02:16:08.219Z,9.80
2022-10-06T02:18:36.033Z,9.80
2022-10-06T02:21:04.278Z,9.70
2022-10-06T02:23:32.125Z,9.70
2022-10-06T02:26:05.795Z,9.70
2022-10-06T02:28:33.682Z,9.70
2022-10-06T02:31:09.465Z,9.80
2022-10-06T02:33:38.058Z,9.90
2022-10-06T02:36:06.804Z,9.90
2022-10-06T02:38:34.397Z,9.90
2022-10-06T02:41:02.318Z,9.90
2022-10-06T02:43:30.104Z,10.00
2022-10-06T02:45:59.371Z,9.90
2022-10-06T02:48:28.349Z,9.90
2022-10-06T02:50:57.109Z,9.90
2022-10-06T02:53:25.850Z,9.90
2022-10-06T02:56:06.019Z,9.80
2022-10-06T02:58:33.524Z,9.80
2022-10-06T03:01:10.784Z,9.80
2022-10-06T03:03:38.277Z,9.80
2022-10-06T03:06:24.916Z,9.80
2022-10-06T03:08:54.670Z,9.80
2022-10-06T03:11:24.771Z,9.70
2022-10-06T03:13:52.825Z,9.70
2022-10-06T03:16:34.662Z,9.60
2022-10-06T03:19:02.494Z,9.70
2022-10-06T03:21:37.958Z,9.70
2022-10-06T03:24:05.912Z,9.70
2022-10-06T03:26:39.701Z,9.70
2022-10-06T03:29:11.287Z,9.80
2022-10-06T03:31:39.954Z,9.90
2022-10-06T03:34:07.450Z,10.00
2022-10-06T03:36:36.039Z,10.20
2022-10-06T03:39:04.936Z,10.50
2022-10-06T03:41:34.753Z,10.70
2022-10-06T03:44:02.257Z,10.80
2022-10-06T03:46:31.609Z,11.10
2022-10-06T03:48:59.579Z,11.40
2022-10-06T03:51:29.823Z,11.60
2022-10-06T03:53:58.008Z,11.90
2022-10-06T03:56:30.383Z,12.10
2022-10-06T03:59:19.556Z,12.30
2022-10-06T04:01:48.287Z,12.40
2022-10-06T04:04:15.351Z,12.40
2022-10-06T04:06:44.460Z,12.40
2022-10-06T04:09:15.716Z,12.50
2022-10-06T04:11:44.583Z,12.50
2022-10-06T04:14:14.869Z,12.60
2022-10-06T04:16:44.739Z,12.70
2022-10-06T04:19:13.478Z,12.70
2022-10-06T04:21:43.571Z,12.90
2022-10-06T04:24:11.667Z,12.90
2022-10-06T04:26:49.015Z,12.90
2022-10-06T04:29:16.459Z,12.80
2022-10-06T04:31:43.705Z,12.90
2022-10-06T04:34:13.558Z,12.80
2022-10-06T04:36:42.813Z,12.70
2022-10-06T04:39:13.729Z,12.60
2022-10-06T04:41:42.808Z,12.50
2022-10-06T04:44:10.537Z,12.50
2022-10-06T04:46:45.578Z,12.50
2022-10-06T04:49:19.549Z,12.50
2022-10-06T04:51:48.910Z,12.50
2022-10-06T04:54:16.342Z,12.60
2022-10-06T04:56:43.371Z,12.60
2022-10-06T04:59:10.618Z,12.60
2022-10-06T05:01:38.064Z,12.70
2022-10-06T05:04:06.403Z,12.70
2022-10-06T05:06:39.141Z,12.60
2022-10-06T05:09:09.226Z,12.60
2022-10-06T05:11:36.239Z,12.50
2022-10-06T05:14:03.357Z,12.60
2022-10-06T05:16:31.780Z,12.60
2022-10-06T05:18:59.577Z,12.70
2022-10-06T05:21:29.117Z,12.80
2022-10-06T05:23:56.596Z,12.90
2022-10-06T05:26:27.171Z,12.90
2022-10-06T05:28:54.836Z,13.00
2022-10-06T05:31:30.151Z,13.10
2022-10-06T05:33:58.229Z,13.10
2022-10-06T05:36:30.238Z,13.20
2022-10-06T05:38:58.185Z,13.20
2022-10-06T05:41:27.195Z,13.20
2022-10-06T05:43:54.167Z,13.20
2022-10-06T05:46:25.264Z,13.20
2022-10-06T05:48:56.107Z,13.20
2022-10-06T05:51:30.386Z,13.20
2022-10-06T05:53:59.039Z,13.20
2022-10-06T05:56:32.954Z,13.20
2022-10-06T05:59:01.053Z,13.10
2022-10-06T06:01:31.375Z,13.20
2022-10-06T06:04:03.380Z,13.20
2022-10-06T06:06:35.874Z,13.40
2022-10-06T06:09:12.375Z,13.50
2022-10-06T06:11:43.073Z,14.10
2022-10-06T06:14:40.747Z,15.00
2022-10-06T06:17:07.939Z,15.10
2022-10-06T06:19:34.841Z,14.90
2022-10-06T06:22:01.835Z,14.70
2022-10-06T06:24:28.884Z,14.50
2022-10-06T06:26:56.139Z,14.30
2022-10-06T06:29:24.484Z,14.20
2022-10-06T06:31:51.494Z,14.20
2022-10-06T06:34:18.399Z,14.10
2022-10-06T06:36:47.581Z,14.10
2022-10-06T06:39:15.484Z,14.10
2022-10-06T06:41:47.881Z,14.30
2022-10-06T06:44:14.953Z,14.40
2022-10-06T06:46:49.851Z,14.50
2022-10-06T06:49:18.093Z,15.80
2022-10-06T06:51:50.052Z,16.60
2022-10-06T06:54:18.364Z,17.70
2022-10-06T06:56:45.992Z,19.40
2022-10-06T06:59:13.743Z,20.90
2022-10-06T07:01:47.458Z,21.30
2022-10-06T07:04:16.438Z,20.80
2022-10-06T07:06:53.498Z,20.20
2022-10-06T07:09:21.009Z,19.10
2022-10-06T07:11:50.362Z,18.10
2022-10-06T07:14:18.396Z,17.30
2022-10-06T07:17:04.181Z,16.70
2022-10-06T07:19:43.331Z,16.30
2022-10-06T07:22:29.086Z,15.90
2022-10-06T07:25:07.752Z,15.60
2022-10-06T07:27:47.386Z,15.40
2022-10-06T07:30:19.583Z,15.30
2022-10-06T07:32:51.244Z,15.10
2022-10-06T07:35:22.924Z,15.10
2022-10-06T07:37:51.283Z,14.90
2022-10-06T07:40:18.834Z,14.80
2022-10-06T07:42:49.366Z,14.80
2022-10-06T07:45:37.474Z,14.70
2022-10-06T07:48:14.708Z,14.60
2022-10-06T07:50:43.997Z,14.60
2022-10-06T07:53:11.509Z,14.50
2022-10-06T07:55:40.305Z,14.50
2022-10-06T07:58:15.156Z,14.40
2022-10-06T08:00:43.443Z,14.40
2022-10-06T08:03:12.182Z,14.40
2022-10-06T08:05:39.828Z,14.40
2022-10-06T08:08:07.332Z,14.40
2022-10-06T08:10:34.324Z,14.50
2022-10-06T08:13:05.345Z,14.60
2022-10-06T08:15:34.347Z,14.70
2022-10-06T08:18:06.199Z,14.80
2022-10-06T08:20:36.209Z,15.00
2022-10-06T08:23:12.225Z,15.30
2022-10-06T08:25:43.391Z,15.60
2022-10-06T08:28:13.600Z,16.00
2022-10-06T08:30:40.783Z,16.20
2022-10-06T08:33:07.867Z,16.50
2022-10-06T08:35:36.371Z,16.70
2022-10-06T08:38:03.501Z,16.80
2022-10-06T08:40:30.747Z,16.90
2022-10-06T08:43:01.174Z,16.80
2022-10-06T08:45:38.731Z,17.10
2022-10-06T08:48:28.961Z,17.30
2022-10-06T08:50:59.348Z,17.50
2022-10-06T08:54:00.126Z,17.40
2022-10-06T08:56:45.316Z,17.40
2022-10-06T08:59:12.398Z,17.40
2022-10-06T09:01:46.426Z,17.30
2022-10-06T09:04:26.956Z,17.30
2022-10-06T09:07:17.038Z,17.30
2022-10-06T09:10:02.836Z,17.40
2022-10-06T09:12:29.945Z,17.50
2022-10-06T09:15:38.558Z,17.60
2022-10-06T09:18:56.097Z,17.70
2022-10-06T09:21:23.471Z,17.70
2022-10-06T09:24:05.707Z,17.70
2022-10-06T09:26:34.327Z,17.80
2022-10-06T09:29:01.492Z,18.00
2022-10-06T09:31:51.264Z,18.20
2022-10-06T09:34:44.866Z,18.30
2022-10-06T09:37:13.898Z,18.30
2022-10-06T09:39:48.322Z,18.40
2022-10-06T09:42:35.720Z,18.50
2022-10-06T09:45:18.226Z,18.60
2022-10-06T09:47:46.194Z,18.80
2022-10-06T09:50:20.385Z,18.90
2022-10-06T09:53:16.478Z,19.10
2022-10-06T09:55:47.412Z,19.10
2022-10-06T09:58:23.093Z,18.90
2022-10-06T10:01:22.987Z,18.70
2022-10-06T10:06:41.873Z,18.40
2022-10-06T10:09:29.933Z,18.30
2022-10-06T10:12:24.577Z,18.10
2022-10-06T10:14:53.099Z,18.00
2022-10-06T10:17:51.676Z,17.80
2022-10-06T10:20:29.421Z,17.70
2022-10-06T10:22:59.410Z,17.70
2022-10-06T10:25:42.041Z,17.80
2022-10-06T10:28:23.083Z,18.00
2022-10-06T10:31:26.144Z,18.10
2022-10-06T10:34:23.874Z,18.30
2022-10-06T10:37:06.568Z,18.30
2022-10-06T10:39:47.686Z,18.40
2022-10-06T10:42:45.688Z,18.60
2022-10-06T10:45:24.507Z,18.70
2022-10-06T10:47:51.734Z,18.80
2022-10-06T10:50:56.517Z,18.70
2022-10-06T10:53:29.248Z,18.60
2022-10-06T10:55:57.024Z,18.50
2022-10-06T10:58:36.840Z,18.40
2022-10-06T11:01:55.884Z,18.20
2022-10-06T11:04:23.341Z,18.20
2022-10-06T11:07:07.121Z,18.20
2022-10-06T11:09:57.170Z,18.20
2022-10-06T11:12:40.877Z,18.40
2022-10-06T11:15:24.512Z,18.70
2022-10-06T11:17:54.442Z,18.90
2022-10-06T11:20:52.680Z,18.80
2022-10-06T11:23:51.141Z,18.80
2022-10-06T11:26:39.920Z,18.80
2022-10-06T11:29:43.247Z,19.00
2022-10-06T11:32:47.235Z,19.20
2022-10-06T11:35:27.225Z,19.10
2022-10-06T11:38:02.776Z,18.90
2022-10-06T11:40:50.928Z,18.80
2022-10-06T11:43:33.681Z,18.60
2022-10-06T11:46:32.405Z,18.60
2022-10-06T11:49:33.954Z,18.70
2022-10-06T11:52:08.204Z,19.30
2022-10-06T11:54:45.538Z,20.10
2022-10-06T11:57:31.020Z,20.80
2022-10-06T12:00:17.062Z,21.70
2022-10-06T12:02:46.251Z,22.10
2022-10-06T12:05:54.672Z,22.00
2022-10-06T12:08:03.747Z,21.70
2022-10-06T12:10:32.501Z,21.20
2022-10-06T12:13:07.092Z,20.80
2022-10-06T12:18:46.634Z,20.00
2022-10-06T12:21:32.622Z,19.70
2022-10-06T12:24:05.761Z,19.60
2022-10-06T12:26:49.352Z,19.40
2022-10-06T12:29:50.829Z,19.30
2022-10-06T12:32:42.682Z,19.30
2022-10-06T12:35:41.232Z,19.30
2022-10-06T12:38:41.526Z,19.30
2022-10-06T12:41:13.119Z,19.30
2022-10-06T12:43:54.744Z,19.10
2022-10-06T12:46:36.888Z,19.00
2022-10-06T12:49:15.622Z,19.00
2022-10-06T12:51:44.675Z,19.10
2022-10-06T12:54:29.292Z,19.10
2022-10-06T12:57:01.281Z,19.10
2022-10-06T12:59:33.846Z,19.10
2022-10-06T13:02:09.660Z,19.20
2022-10-06T13:04:50.459Z,19.30
2022-10-06T13:07:19.760Z,19.40
2022-10-06T13:09:50.047Z,19.50
2022-10-06T13:12:29.622Z,19.50
2022-10-06T13:18:18.504Z,19.40
2022-10-06T13:20:51.256Z,19.30
2022-10-06T13:23:36.872Z,19.10
2022-10-06T13:26:08.696Z,19.00
2022-10-06T13:28:44.518Z,18.90
2022-10-06T13:31:35.365Z,18.80
2022-10-06T13:34:11.174Z,18.80
2022-10-06T13:36:40.992Z,18.70
2022-10-06T13:39:18.817Z,18.70
2022-10-06T13:41:52.355Z,18.70
2022-10-06T13:44:19.366Z,18.70
2022-10-06T13:46:50.117Z,18.70
2022-10-06T13:49:28.735Z,18.60
2022-10-06T13:52:00.414Z,18.60
2022-10-06T13:54:55.511Z,18.50
2022-10-06T13:57:45.400Z,18.30
2022-10-06T14:00:18.373Z,18.30
2022-10-06T14:02:51.460Z,18.40
2022-10-06T14:05:24.202Z,18.90
2022-10-06T14:07:52.685Z,19.40
2022-10-06T14:10:49.005Z,19.80
2022-10-06T14:13:23.753Z,19.80
2022-10-06T14:15:52.188Z,19.90
2022-10-06T14:18:27.271Z,20.00
2022-10-06T14:20:57.252Z,19.90
2022-10-06T14:23:42.460Z,19.80
2022-10-06T14:26:11.970Z,19.80
2022-10-06T14:28:40.980Z,19.90
2022-10-06T14:31:14.289Z,20.00
2022-10-06T14:33:42.223Z,20.10
2022-10-06T14:36:16.509Z,20.10
2022-10-06T14:38:43.492Z,20.10
2022-10-06T14:41:10.498Z,20.20
2022-10-06T14:43:38.756Z,20.20
2022-10-06T14:46:08.622Z,20.10
2022-10-06T14:48:35.569Z,20.20
2022-10-06T14:51:04.183Z,20.10
2022-10-06T14:53:31.436Z,19.90
2022-10-06T14:56:07.068Z,19.80
2022-10-06T14:58:38.575Z,19.70
2022-10-06T15:01:10.107Z,19.70
2022-10-06T15:03:37.386Z,19.60
2022-10-06T15:06:28.081Z,19.60
2022-10-06T15:08:57.158Z,19.50
2022-10-06T15:11:26.564Z,19.40
2022-10-06T15:13:55.287Z,19.30
2022-10-06T15:16:24.942Z,19.30
2022-10-06T15:18:52.722Z,19.20
2022-10-06T15:21:21.233Z,19.10
2022-10-06T15:23:49.170Z,18.90
2022-10-06T15:26:34.447Z,18.80
2022-10-06T15:29:01.391Z,18.60
2022-10-06T15:31:31.538Z,18.50
2022-10-06T15:34:01.169Z,18.30
2022-10-06T15:36:33.591Z,18.00
2022-10-06T15:39:04.906Z,17.80
2022-10-06T15:41:33.897Z,17.70
2022-10-06T15:44:00.999Z,17.60
2022-10-06T15:46:34.505Z,17.50
2022-10-06T15:49:08.896Z,17.50
2022-10-06T15:51:49.603Z,17.40
2022-10-06T15:54:24.117Z,17.20
2022-10-06T15:56:53.465Z,17.10
2022-10-06T15:59:24.500Z,17.00
2022-10-06T16:01:57.540Z,16.80
2022-10-06T16:04:47.962Z,16.70
2022-10-06T16:07:19.924Z,16.60
2022-10-06T16:09:49.101Z,16.40
2022-10-06T16:12:22.027Z,16.10
2022-10-06T16:14:49.277Z,16.00
2022-10-06T16:17:16.286Z,15.90
2022-10-06T16:19:43.997Z,15.70
2022-10-06T16:22:14.590Z,15.70
2022-10-06T16:24:41.537Z,15.50
2022-10-06T16:27:17.294Z,15.40
2022-10-06T16:29:44.387Z,15.20
2022-10-06T16:32:11.494Z,15.10
2022-10-06T16:34:38.517Z,15.00
2022-10-06T16:37:05.586Z,14.80
2022-10-06T16:39:32.623Z,14.70
2022-10-06T16:41:59.758Z,14.60
2022-10-06T16:44:26.850Z,14.40
2022-10-06T16:46:53.844Z,14.30
2022-10-06T16:49:21.269Z,14.10
2022-10-06T16:51:48.522Z,14.00
2022-10-06T16:54:17.569Z,13.90
2022-10-06T16:56:47.092Z,13.80
2022-10-06T16:59:18.102Z,13.70
2022-10-06T17:01:46.039Z,13.60
2022-10-06T17:04:17.857Z,13.50
2022-10-06T17:06:50.075Z,13.40
2022-10-06T17:09:19.355Z,13.30
2022-10-06T17:11:51.708Z,13.20
2022-10-06T17:14:20.162Z,13.10
2022-10-06T17:16:48.932Z,12.90
2022-10-06T17:19:17.469Z,12.90
2022-10-06T17:21:46.851Z,12.70
2022-10-06T17:24:17.895Z,12.70
2022-10-06T17:26:47.654Z,12.50
2022-10-06T17:29:21.544Z,12.50
2022-10-06T17:31:51.168Z,12.40
2022-10-06T17:34:21.955Z,12.40
2022-10-06T17:36:51.936Z,12.30
2022-10-06T17:39:24.534Z,12.10
2022-10-06T17:41:53.587Z,12.00
2022-10-06T17:44:25.949Z,11.90
2022-10-06T17:46:55.708Z,11.90
2022-10-06T17:49:27.018Z,11.90
2022-10-06T17:51:55.107Z,11.80
2022-10-06T17:54:24.494Z,11.70
2022-10-06T17:56:54.271Z,11.70
2022-10-06T17:59:23.672Z,11.70
2022-10-06T18:01:52.253Z,11.60
2022-10-06T18:04:19.754Z,11.60
2022-10-06T18:06:47.872Z,11.50
2022-10-06T18:09:15.743Z,11.40
2022-10-06T18:11:44.458Z,11.40
2022-10-06T18:14:16.294Z,11.40
2022-10-06T18:16:46.317Z,11.30
2022-10-06T18:19:18.768Z,11.20
2022-10-06T18:21:47.885Z,11.20
2022-10-06T18:24:24.089Z,11.10
2022-10-06T18:26:53.045Z,11.10
2022-10-06T18:29:23.515Z,11.00
2022-10-06T18:31:52.414Z,10.90
2022-10-06T18:37:07.339Z,10.80
2022-10-06T18:39:34.334Z,10.70
2022-10-06T18:42:03.774Z,10.70
2022-10-06T18:44:49.367Z,10.70
2022-10-06T18:47:35.054Z,10.70
2022-10-06T18:50:02.050Z,10.70
2022-10-06T18:52:29.106Z,10.60
2022-10-06T18:54:56.099Z,10.60
2022-10-06T18:57:27.745Z,10.50
2022-10-06T18:59:55.296Z,10.60
2022-10-06T19:02:22.697Z,10.50
2022-10-06T19:04:49.753Z,10.40
2022-10-06T19:07:16.825Z,10.40
2022-10-06T19:09:46.570Z,10.40
2022-10-06T19:12:13.965Z,10.30
2022-10-06T19:14:47.478Z,10.30
2022-10-06T19:17:16.159Z,10.30
2022-10-06T19:19:55.467Z,10.30
2022-10-06T19:22:24.834Z,10.30
2022-10-06T19:24:52.450Z,10.30
2022-10-06T19:27:24.455Z,10.20
2022-10-06T19:29:54.505Z,10.20
2022-10-06T19:32:24.232Z,10.00
2022-10-06T19:34:51.547Z,10.00
2022-10-06T19:37:18.989Z,10.00
2022-10-06T19:39:48.212Z,9.90
2022-10-06T19:42:35.326Z,9.90
2022-10-06T19:45:03.373Z,9.90
2022-10-06T19:47:30.400Z,9.90
2022-10-06T19:50:02.030Z,9.90
2022-10-06T19:52:31.183Z,9.80
2022-10-06T19:54:58.605Z,9.70
2022-10-06T19:57:28.767Z,9.70
2022-10-06T19:59:55.762Z,9.60
2022-10-06T20:02:22.905Z,9.60
2022-10-06T20:04:50.635Z,9.50
2022-10-06T20:07:21.693Z,9.50
2022-10-06T20:09:48.824Z,9.50
2022-10-06T20:12:18.767Z,9.60
2022-10-06T20:14:50.050Z,9.50
2022-10-06T20:17:18.057Z,9.60
2022-10-06T20:19:46.131Z,9.60
2022-10-06T20:22:13.699Z,9.60
2022-10-06T20:24:40.636Z,9.60
2022-10-06T20:27:07.593Z,9.50
2022-10-06T20:29:34.943Z,9.60
2022-10-06T20:32:01.883Z,9.50
2022-10-06T20:34:32.906Z,9.50
2022-10-06T20:37:02.435Z,9.50
2022-10-06T20:39:52.321Z,9.50
2022-10-06T20:42:20.866Z,9.50
2022-10-06T20:44:47.895Z,9.50
2022-10-06T20:47:16.708Z,9.40
2022-10-06T20:49:44.687Z,9.40
2022-10-06T20:52:14.784Z,9.40
2022-10-06T20:54:42.134Z,9.40
2022-10-06T20:57:09.729Z,9.40
2022-10-06T20:59:37.659Z,9.40
2022-10-06T21:02:05.743Z,9.50
2022-10-06T21:04:33.249Z,9.50
2022-10-06T21:07:01.878Z,9.50
2022-10-06T21:09:29.529Z,9.60
2022-10-06T21:11:59.720Z,9.50
2022-10-06T21:14:26.886Z,9.40
2022-10-06T21:16:54.628Z,9.40
2022-10-06T21:19:21.805Z,9.40
2022-10-06T21:21:50.952Z,9.50
2022-10-06T21:24:18.722Z,9.50
2022-10-06T21:26:46.436Z,9.50
2022-10-06T21:29:15.979Z,9.50
2022-10-06T21:31:44.939Z,9.50
2022-10-06T21:34:14.621Z,9.60
2022-10-06T21:36:44.454Z,9.60
2022-10-06T21:39:12.923Z,9.70
2022-10-06T21:41:40.770Z,9.70
2022-10-06T21:44:15.930Z,9.70
2022-10-06T21:46:50.108Z,9.70
2022-10-06T21:49:22.512Z,9.70
2022-10-06T21:51:52.250Z,9.70
2022-10-06T21:54:20.614Z,9.80
2022-10-06T21:56:48.097Z,9.90
2022-10-06T21:59:15.600Z,9.90
2022-10-06T22:01:44.861Z,10.00
2022-10-06T22:04:14.492Z,10.00
2022-10-06T22:06:43.184Z,10.00
2022-10-06T22:09:14.779Z,10.10
2022-10-06T22:11:42.189Z,10.10
2022-10-06T22:14:12.415Z,10.10
2022-10-06T22:16:39.964Z,10.10
2022-10-06T22:19:09.288Z,10.20
2022-10-06T22:21:38.948Z,10.20
2022-10-06T22:24:14.935Z,10.20
2022-10-06T22:26:43.597Z,10.20
2022-10-06T22:29:13.040Z,10.20
2022-10-06T22:31:43.149Z,10.20
2022-10-06T22:34:12.301Z,10.30
2022-10-06T22:36:39.781Z,10.30
2022-10-06T22:39:06.939Z,10.40
2022-10-06T22:41:34.185Z,10.30
2022-10-06T22:44:01.433Z,10.40
2022-10-06T22:46:30.838Z,10.40
2022-10-06T22:48:58.606Z,10.50
2022-10-06T22:51:26.066Z,10.50
2022-10-06T22:53:57.820Z,10.50
2022-10-06T22:56:27.114Z,10.50
2022-10-06T22:58:54.605Z,10.50
2022-10-06T23:01:21.771Z,10.50
2022-10-06T23:03:49.072Z,10.50
2022-10-06T23:06:18.087Z,10.50
2022-10-06T23:08:45.675Z,10.50
2022-10-06T23:11:16.252Z,10.50
2022-10-06T23:13:43.605Z,10.50
2022-10-06T23:16:15.627Z,10.50
2022-10-06T23:18:44.094Z,10.50
2022-10-06T23:21:21.954Z,10.50
2022-10-06T23:23:51.810Z,10.50
2022-10-06T23:26:19.966Z,10.50
2022-10-06T23:28:55.534Z,10.50
2022-10-06T23:31:23.420Z,10.60
2022-10-06T23:33:50.863Z,10.60
2022-10-06T23:36:18.621Z,10.50
2022-10-06T23:38:46.343Z,10.50
2022-10-06T23:41:14.242Z,10.50
2022-10-06T23:43:41.354Z,10.50
2022-10-06T23:46:08.952Z,10.50
2022-10-06T23:48:36.480Z,10.50
2022-10-06T23:51:13.092Z,10.50
2022-10-06T23:53:40.685Z,10.50
2022-10-06T23:56:08.623Z,10.40
2022-10-06T23:58:36.504Z,10.30
